Time;durP1;ratioP1;P1;durP2;ratioP2;P2;SDS_P1;SDS_P2;PMS_P1;PMS_P2;Temp;Humidity;BMP_temperature;BMP_pressure;BME280_temperature;BME280_humidity;BME280_pressure;Samples;Min_cycle;Max_cycle;Signal;HPM_P1;HPM_P2
2023/02/26 00:01:41;;;;;;;2.93;1.90;;;1.20;66.50;;;4.44;43.53;97100.69;5064125;28;20509;-48
2023/02/26 00:04:09;;;;;;;5.17;2.33;;;1.10;66.00;;;4.46;44.02;97099.59;5037915;28;20131;-48
2023/02/26 00:06:51;;;;;;;2.33;1.60;;;1.20;66.20;;;4.42;44.06;97105.25;5072452;28;20044;-48
2023/02/26 00:09:19;;;;;;;2.70;1.63;;;1.10;66.00;;;4.41;43.73;97104.44;5072165;28;20075;-48
2023/02/26 00:11:48;;;;;;;3.63;2.00;;;1.10;65.70;;;4.39;43.63;97101.09;5037932;28;20492;-49
2023/02/26 00:14:16;;;;;;;3.03;1.80;;;1.10;66.10;;;4.44;43.22;97100.69;5054129;28;20054;-47
2023/02/26 00:16:53;;;;;;;4.13;1.40;;;1.10;66.20;;;4.46;43.52;97112.78;5072014;28;20041;-46
2023/02/26 00:19:21;;;;;;;2.83;1.30;;;1.20;65.50;;;4.39;43.03;97109.00;5054828;28;20041;-46
2023/02/26 00:21:49;;;;;;;4.30;1.50;;;1.10;65.40;;;4.36;43.83;97106.63;5072078;28;20036;-47
2023/02/26 00:24:17;;;;;;;4.07;1.63;;;1.00;66.00;;;4.33;43.99;97107.75;5053929;28;20534;-46
2023/02/26 00:26:44;;;;;;;5.10;1.50;;;1.00;65.70;;;4.30;43.31;97105.41;5053980;28;20044;-48
2023/02/26 00:29:12;;;;;;;5.17;3.30;;;0.90;65.60;;;4.26;43.42;97100.50;5053895;28;20064;-48
2023/02/26 00:31:40;;;;;;;3.90;1.90;;;0.90;66.10;;;4.24;43.80;97105.91;5071500;28;20037;-49
2023/02/26 00:34:12;;;;;;;3.33;2.00;;;0.90;66.00;;;4.21;43.93;97110.66;5053090;28;20049;-51
2023/02/26 00:36:59;;;;;;;3.03;1.73;;;0.90;65.80;;;4.14;43.63;97115.59;5071572;28;20041;-46
2023/02/26 00:40:19;;;;;;;3.77;1.57;;;0.90;65.10;;;4.05;43.92;97114.63;5054558;28;20056;-47
2023/02/26 00:42:48;;;;;;;4.27;1.70;;;0.80;65.70;;;4.05;43.65;97111.97;5046186;28;20063;-46
2023/02/26 00:45:16;;;;;;;3.20;1.60;;;0.80;65.90;;;4.08;43.56;97113.50;5053354;28;20396;-48
2023/02/26 00:48:03;;;;;;;2.33;1.87;;;0.70;65.90;;;4.06;43.99;97113.63;5063569;28;20041;-49
2023/02/26 00:50:31;;;;;;;3.27;1.40;;;0.80;66.00;;;4.03;43.27;97113.06;5071267;28;20045;-46
2023/02/26 00:53:19;;;;;;;1.90;1.50;;;0.70;66.00;;;3.96;44.04;97112.78;5052835;28;20052;-46
2023/02/26 00:55:47;;;;;;;3.90;1.90;;;0.60;66.50;;;3.99;43.66;97120.38;5046250;28;20059;-47
2023/02/26 00:58:14;;;;;;;4.67;1.60;;;0.60;66.60;;;3.96;43.65;97112.78;5052676;28;20044;-47
2023/02/26 01:00:42;;;;;;;4.30;1.83;;;0.60;66.80;;;3.99;43.97;97117.75;5071112;28;20063;-48
2023/02/26 01:03:10;;;;;;;3.93;1.60;;;0.60;66.50;;;3.99;43.92;97117.75;5060885;28;20419;-49
2023/02/26 01:05:38;;;;;;;2.80;1.17;;;0.60;66.60;;;3.92;43.40;97106.94;5052164;28;20511;-48
2023/02/26 01:08:18;;;;;;;2.37;1.37;;;0.50;66.40;;;3.82;43.92;97115.75;5071291;28;20255;-50
2023/02/26 01:10:46;;;;;;;2.97;1.53;;;0.50;66.20;;;3.81;43.74;97116.72;5045527;28;20033;-50
2023/02/26 01:13:14;;;;;;;2.43;1.57;;;0.30;66.90;;;3.79;44.24;97114.22;5053447;28;20052;-47
2023/02/26 01:15:49;;;;;;;3.83;1.77;;;0.40;67.20;;;3.79;44.10;97116.84;5052634;28;20492;-48
2023/02/26 01:18:38;;;;;;;3.97;1.60;;;0.40;66.30;;;3.78;43.92;97124.88;5069365;28;20156;-46
2023/02/26 01:21:10;;;;;;;2.17;1.33;;;0.40;67.30;;;3.83;43.98;97118.25;5036887;28;20060;-47
2023/02/26 01:23:45;;;;;;;2.57;1.40;;;0.40;65.90;;;3.81;43.54;97117.56;5051399;28;20415;-52
2023/02/26 01:26:26;;;;;;;3.30;1.60;;;0.40;66.20;;;3.76;43.79;97109.19;5052644;28;20048;-46
2023/02/26 01:28:55;;;;;;;2.43;1.40;;;0.40;67.30;;;3.69;43.94;97103.63;5046157;28;20047;-47
2023/02/26 01:32:15;;;;;;;3.97;2.30;;;0.30;66.00;;;3.57;43.60;97107.34;5052101;28;20049;-48
2023/02/26 01:35:01;;;;;;;5.00;2.07;;;0.30;65.80;;;3.57;43.48;97112.59;5041318;28;20116;-48
2023/02/26 01:37:46;;;;;;;3.00;1.70;;;0.20;66.40;;;3.55;43.92;97112.72;5037264;28;20045;-50
2023/02/26 01:40:41;;;;;;;3.07;1.43;;;0.20;66.50;;;3.51;44.20;97110.50;5054614;28;20040;-48
2023/02/26 01:43:35;;;;;;;3.80;1.83;;;0.30;66.60;;;3.49;44.01;97107.97;5065676;28;20040;-45
2023/02/26 01:46:10;;;;;;;5.10;2.13;;;0.20;66.60;;;3.47;43.85;97122.22;5048485;28;20040;-48
2023/02/26 01:48:55;;;;;;;4.43;2.17;;;0.10;66.50;;;3.44;43.78;97120.69;5035788;28;20044;-46
2023/02/26 01:51:48;;;;;;;7.60;2.50;;;0.20;66.40;;;3.37;43.60;97126.59;5070463;28;20040;-50
2023/02/26 01:54:30;;;;;;;3.27;2.13;;;0.10;66.30;;;3.31;43.89;97128.75;5052000;28;20053;-47
2023/02/26 01:57:07;;;;;;;3.97;2.00;;;-0.10;66.80;;;3.28;44.13;97122.94;5063854;28;20048;-46
2023/02/26 01:59:43;;;;;;;3.30;2.07;;;-0.10;67.10;;;3.28;43.88;97121.16;5037151;28;20504;-46
2023/02/26 02:02:15;;;;;;;2.50;1.90;;;-0.10;67.20;;;3.29;43.93;97112.28;5053223;28;20045;-47
2023/02/26 02:04:43;;;;;;;4.33;1.93;;;-0.10;67.00;;;3.28;44.33;97117.69;5051362;28;20519;-46
2023/02/26 02:07:11;;;;;;;4.87;2.07;;;0.00;67.30;;;3.31;43.83;97117.41;5052443;28;20495;-47
2023/02/26 02:09:39;;;;;;;4.57;2.47;;;0.00;67.00;;;3.30;44.14;97118.41;5073380;28;20044;-46
2023/02/26 02:12:33;;;;;;;4.47;2.27;;;-0.10;67.40;;;3.27;43.77;97110.75;5055904;28;20049;-47
2023/02/26 02:15:19;;;;;;;5.67;2.13;;;0.00;67.00;;;3.33;44.05;97121.59;5049521;28;20059;-49
2023/02/26 02:18:00;;;;;;;4.30;1.80;;;0.00;67.00;;;3.36;43.86;97128.41;5048167;28;20041;-47
2023/02/26 02:21:10;;;;;;;4.00;1.63;;;0.10;66.70;;;3.28;44.27;97123.78;5056155;28;20416;-48
2023/02/26 02:23:50;;;;;;;2.97;1.63;;;0.00;66.30;;;3.33;43.96;97129.50;5056216;28;20049;-45
2023/02/26 02:26:48;;;;;;;1.97;1.30;;;0.10;66.60;;;3.28;44.25;97125.59;5073756;28;20055;-46
2023/02/26 02:30:02;;;;;;;6.10;2.23;;;0.00;66.90;;;3.15;44.16;97137.09;5070012;28;20044;-47
2023/02/26 02:33:10;;;;;;;2.60;1.73;;;-0.10;66.80;;;3.08;44.37;97137.75;5071623;28;20387;-51
2023/02/26 02:35:48;;;;;;;2.90;2.17;;;-0.20;67.50;;;3.13;43.93;97139.03;5055643;28;20044;-47
2023/02/26 02:38:30;;;;;;;4.00;1.90;;;-0.30;67.00;;;3.06;44.16;97140.50;5056530;28;20044;-48
2023/02/26 02:41:10;;;;;;;2.67;2.00;;;-0.30;67.60;;;3.00;43.88;97138.38;5036844;28;20509;-49
2023/02/26 02:43:40;;;;;;;5.83;2.27;;;-0.40;67.70;;;3.00;44.18;97140.16;5055326;28;20052;-47
2023/02/26 02:46:22;;;;;;;3.30;1.80;;;-0.50;68.30;;;3.01;43.97;97144.50;5038640;28;20071;-49
2023/02/26 02:49:01;;;;;;;5.33;2.07;;;-0.40;68.10;;;2.99;44.51;97147.25;5065555;28;20037;-47
2023/02/26 02:51:38;;;;;;;3.20;1.90;;;-0.40;67.90;;;2.98;44.10;97150.81;5056291;28;20043;-46
2023/02/26 02:54:17;;;;;;;3.07;1.73;;;-0.50;69.20;;;3.00;44.60;97150.69;5056565;28;20426;-45
2023/02/26 02:56:55;;;;;;;3.57;1.87;;;-0.40;68.30;;;3.03;44.48;97148.66;5039128;28;20052;-47
2023/02/26 02:59:40;;;;;;;2.33;1.60;;;-0.40;68.10;;;3.07;44.24;97147.44;5055309;28;20052;-47
2023/02/26 03:02:32;;;;;;;3.00;1.57;;;-0.30;67.80;;;3.03;44.20;97147.81;5055332;28;20053;-46
2023/02/26 03:04:59;;;;;;;3.93;1.80;;;-0.30;67.30;;;2.98;44.19;97149.97;5055180;28;20048;-48
2023/02/26 03:07:38;;;;;;;3.97;2.10;;;-0.40;67.40;;;2.94;44.04;97154.66;5073360;28;20435;-50
2023/02/26 03:10:07;;;;;;;4.17;2.10;;;-0.40;67.60;;;2.94;44.41;97152.03;5056141;28;20071;-48
2023/02/26 03:12:35;;;;;;;4.60;2.00;;;-0.50;67.80;;;2.82;44.55;97156.50;5073121;28;20040;-46
2023/02/26 03:15:03;;;;;;;2.87;1.83;;;-0.60;68.10;;;2.80;44.53;97153.16;5055493;28;20045;-49
2023/02/26 03:17:53;;;;;;;7.30;1.80;;;-0.60;68.30;;;2.78;44.39;97155.06;5038771;28;20044;-49
2023/02/26 03:20:35;;;;;;;2.47;1.37;;;-0.50;68.90;;;2.81;44.42;97146.97;5056141;28;20037;-48
2023/02/26 03:23:21;;;;;;;2.63;1.70;;;-0.50;68.20;;;2.84;44.52;97151.13;5032594;28;20047;-51
2023/02/26 03:25:56;;;;;;;3.83;1.60;;;-0.50;68.10;;;2.88;44.56;97157.78;5055572;28;20049;-48
2023/02/26 03:28:40;;;;;;;3.63;2.63;;;-0.50;68.20;;;2.86;44.51;97163.16;5054716;28;20059;-46
2023/02/26 03:31:41;;;;;;;2.80;1.75;;;-0.40;68.20;;;2.86;44.62;97167.59;5055003;28;20052;-47
2023/02/26 03:34:39;;;;;;;8.53;3.00;;;-0.40;68.30;;;2.92;44.19;97172.34;5034764;28;20425;-48
2023/02/26 03:37:22;;;;;;;2.20;1.43;;;-0.40;68.20;;;2.89;44.34;97175.22;5032928;28;20055;-47
2023/02/26 03:39:55;;;;;;;5.07;2.90;;;-0.40;68.20;;;2.87;44.81;97172.75;5055713;28;20408;-46
2023/02/26 03:42:46;;;;;;;5.43;1.60;;;-0.40;68.00;;;2.81;44.55;97173.25;5046699;28;20067;-46
2023/02/26 03:45:21;;;;;;;2.50;1.50;;;-0.50;68.40;;;2.86;44.46;97180.75;5049969;28;20519;-47
2023/02/26 03:47:52;;;;;;;3.13;2.43;;;-0.50;68.30;;;2.86;44.47;97178.94;5054532;28;20419;-47
2023/02/26 03:50:42;;;;;;;2.67;1.50;;;-0.50;68.40;;;2.82;44.22;97181.97;5038406;28;20471;-51
2023/02/26 03:53:55;;;;;;;2.50;1.90;;;-0.50;68.20;;;2.80;44.30;97189.13;5059094;28;20044;-46
2023/02/26 03:56:45;;;;;;;3.23;1.67;;;-0.50;68.40;;;2.77;44.86;97195.47;5055844;28;20040;-46
2023/02/26 03:59:32;;;;;;;3.47;2.35;;;-0.50;68.50;;;2.79;44.89;97198.78;5055630;28;20339;-46
2023/02/26 04:02:33;;;;;;;3.13;1.60;;;-0.50;68.60;;;2.73;44.66;97197.53;5057131;28;20530;-47
2023/02/26 04:05:19;;;;;;;2.63;1.83;;;-0.60;68.80;;;2.72;44.68;97206.34;5050461;28;20057;-47
2023/02/26 04:07:48;;;;;;;3.07;1.63;;;-0.70;69.00;;;2.71;44.74;97196.78;5054798;28;20052;-49
2023/02/26 04:10:23;;;;;;;1.90;1.57;;;-0.70;69.00;;;2.65;44.92;97213.06;5054617;28;20044;-46
2023/02/26 04:12:51;;;;;;;8.90;2.30;;;-0.70;69.50;;;2.66;44.74;97206.84;5071898;28;20047;-47
2023/02/26 04:15:19;;;;;;;7.67;2.40;;;-0.70;69.80;;;2.68;44.58;97206.72;5071912;28;20407;-49
2023/02/26 04:17:46;;;;;;;3.70;1.70;;;-0.70;69.20;;;2.68;44.79;97204.94;5072025;28;20496;-46
2023/02/26 04:20:14;;;;;;;2.87;1.93;;;-0.70;69.30;;;2.67;44.99;97207.69;5053999;28;20500;-47
2023/02/26 04:22:42;;;;;;;4.50;3.50;;;-0.70;69.40;;;2.64;44.94;97202.69;5071979;28;20041;-45
2023/02/26 04:25:10;;;;;;;6.50;4.27;;;-0.80;69.70;;;2.63;44.97;97207.09;5049829;28;20219;-49
2023/02/26 04:27:38;;;;;;;6.07;2.70;;;-0.80;69.80;;;2.65;45.12;97206.97;5071803;28;20612;-47
2023/02/26 04:30:07;;;;;;;4.00;2.83;;;-0.70;69.50;;;2.67;44.62;97205.03;5053255;28;20053;-45
2023/02/26 04:32:35;;;;;;;4.10;2.77;;;-0.70;69.70;;;2.62;45.02;97208.06;5060390;28;20487;-45
2023/02/26 04:35:03;;;;;;;4.27;3.13;;;-0.80;69.90;;;2.54;45.19;97207.84;5053859;28;20044;-49
2023/02/26 04:37:31;;;;;;;4.23;2.50;;;-0.90;70.10;;;2.51;45.24;97215.94;5053459;28;20048;-47
2023/02/26 04:39:58;;;;;;;5.17;2.50;;;-0.90;70.70;;;2.54;45.39;97215.72;5053593;28;20040;-48
2023/02/26 04:42:26;;;;;;;4.77;2.53;;;-0.90;70.70;;;2.54;45.02;97232.31;5070011;28;20059;-46
2023/02/26 04:44:54;;;;;;;5.57;4.47;;;-0.90;70.30;;;2.51;45.23;97226.47;5052817;28;20052;-48
2023/02/26 04:47:24;;;;;;;4.13;2.57;;;-0.90;70.60;;;2.54;45.26;97232.31;5053825;28;20055;-46
2023/02/26 04:49:52;;;;;;;4.80;3.00;;;-0.80;70.20;;;2.52;45.50;97228.13;5037022;28;20518;-48
2023/02/26 04:52:19;;;;;;;3.83;2.23;;;-0.90;70.20;;;2.51;45.18;97236.97;5053228;28;20044;-45
2023/02/26 04:54:48;;;;;;;2.80;2.03;;;-0.90;70.70;;;2.50;45.31;97233.50;5068489;28;20059;-46
2023/02/26 04:57:16;;;;;;;2.73;1.90;;;-0.90;70.90;;;2.50;45.53;97244.03;5053761;28;20682;-48
2023/02/26 04:59:44;;;;;;;2.83;1.93;;;-0.90;71.10;;;2.50;45.59;97244.03;5053284;28;20044;-50
2023/02/26 05:02:12;;;;;;;4.30;1.90;;;-1.00;70.70;;;2.45;45.41;97242.72;5052695;28;20056;-45
2023/02/26 05:04:44;;;;;;;2.83;1.90;;;-1.10;71.60;;;2.41;45.12;97247.38;5052453;28;20044;-48
2023/02/26 05:07:12;;;;;;;3.93;2.30;;;-1.10;71.50;;;2.40;45.61;97242.22;5069845;28;20052;-49
2023/02/26 05:09:41;;;;;;;3.17;2.30;;;-1.10;71.50;;;2.38;45.92;97247.59;5053234;28;20048;-49
2023/02/26 05:12:09;;;;;;;3.20;2.20;;;-1.10;71.80;;;2.43;45.45;97247.25;5071117;28;20079;-47
2023/02/26 05:14:36;;;;;;;4.77;2.53;;;-1.00;71.90;;;2.48;45.36;97248.56;5052604;28;20416;-50
2023/02/26 05:17:04;;;;;;;3.27;2.33;;;-1.00;71.20;;;2.46;45.69;97250.47;5070711;28;20059;-48
2023/02/26 05:19:32;;;;;;;4.77;2.93;;;-1.00;71.00;;;2.44;45.47;97254.16;5052482;28;20060;-49
2023/02/26 05:21:59;;;;;;;7.13;4.13;;;-1.00;71.50;;;2.36;45.83;97257.38;5045129;28;20041;-46
2023/02/26 05:24:27;;;;;;;5.10;3.23;;;-1.10;71.90;;;2.39;45.82;97256.34;5036402;28;20041;-49
2023/02/26 05:26:55;;;;;;;5.50;3.33;;;-1.10;71.90;;;2.39;45.60;97258.97;5052580;28;20500;-45
2023/02/26 05:29:22;;;;;;;3.53;2.30;;;-1.00;71.60;;;2.34;45.73;97257.50;5051701;28;20044;-46
2023/02/26 05:31:50;;;;;;;3.77;2.27;;;-1.00;71.40;;;2.33;45.73;97255.84;5069519;28;20051;-45
2023/02/26 05:34:19;;;;;;;6.37;2.90;;;-1.00;71.30;;;2.30;46.06;97263.13;5052593;28;20044;-46
2023/02/26 05:36:46;;;;;;;3.93;1.90;;;-1.10;71.70;;;2.27;45.60;97269.47;5070674;28;20056;-48
2023/02/26 05:39:14;;;;;;;4.03;2.03;;;-1.10;71.50;;;2.28;46.08;97268.50;5070780;28;20036;-46
2023/02/26 05:41:41;;;;;;;5.73;2.30;;;-1.10;71.60;;;2.28;45.91;97270.28;5070874;28;20033;-46
2023/02/26 05:44:09;;;;;;;3.53;2.00;;;-1.10;71.50;;;2.32;45.71;97267.28;5070568;28;20056;-46
2023/02/26 05:46:36;;;;;;;4.20;2.30;;;-1.10;71.50;;;2.28;46.13;97270.28;5070703;28;20048;-50
2023/02/26 05:49:04;;;;;;;6.93;2.40;;;-1.20;71.50;;;2.32;45.84;97283.06;5070831;28;20048;-47
2023/02/26 05:51:32;;;;;;;3.73;2.00;;;-1.10;71.50;;;2.34;45.96;97278.53;5070246;28;20055;-48
2023/02/26 05:53:59;;;;;;;4.03;1.93;;;-1.00;71.40;;;2.37;46.01;97282.72;5070274;28;20051;-47
2023/02/26 05:56:27;;;;;;;14.33;6.07;;;-1.00;71.00;;;2.38;45.96;97287.00;5070615;28;20041;-50
2023/02/26 05:58:54;;;;;;;18.10;7.97;;;-1.00;70.80;;;2.41;45.54;97297.28;5070643;28;20064;-46
2023/02/26 06:01:22;;;;;;;6.80;4.10;;;-0.90;70.60;;;2.40;45.30;97294.78;5070853;28;20048;-45
2023/02/26 06:03:50;;;;;;;7.90;2.40;;;-0.90;70.50;;;2.35;45.92;97295.97;5070697;28;20048;-44
2023/02/26 06:06:17;;;;;;;3.47;1.97;;;-1.00;70.50;;;2.34;45.64;97304.78;5070225;28;20059;-44
2023/02/26 06:08:45;;;;;;;2.83;1.50;;;-1.00;70.70;;;2.33;45.70;97304.94;5070359;28;20396;-44
2023/02/26 06:11:13;;;;;;;2.03;1.67;;;-1.00;70.60;;;2.28;45.97;97307.91;5070593;28;20516;-47
2023/02/26 06:13:41;;;;;;;5.77;1.87;;;-1.10;70.60;;;2.25;46.02;97309.91;5070423;28;20048;-47
2023/02/26 06:16:08;;;;;;;4.90;1.70;;;-1.10;71.00;;;2.21;45.69;97313.72;5070310;28;20041;-48
2023/02/26 06:18:36;;;;;;;4.10;2.63;;;-1.20;71.20;;;2.19;46.05;97313.00;5052099;28;20045;-45
2023/02/26 06:21:04;;;;;;;3.87;1.77;;;-1.20;71.60;;;2.17;46.03;97319.25;5070567;28;20138;-51
2023/02/26 06:23:31;;;;;;;4.87;2.03;;;-1.30;71.80;;;2.17;45.86;97321.00;5036450;28;20057;-48
2023/02/26 06:25:59;;;;;;;1.90;1.60;;;-1.30;71.80;;;2.14;45.91;97316.00;5052020;28;20045;-49
2023/02/26 06:28:26;;;;;;;5.90;1.77;;;-1.20;71.70;;;2.13;46.13;97322.19;5070174;28;20072;-48
2023/02/26 06:30:54;;;;;;;5.53;2.43;;;-1.20;71.70;;;2.15;46.10;97325.53;5070045;28;20056;-47
2023/02/26 06:33:22;;;;;;;5.57;2.50;;;-1.20;71.60;;;2.16;46.06;97335.09;5070372;28;20448;-44
2023/02/26 06:35:50;;;;;;;3.77;1.90;;;-1.20;71.50;;;2.15;46.16;97343.94;5069809;28;20044;-50
2023/02/26 06:38:18;;;;;;;4.57;2.70;;;-1.20;71.50;;;2.09;45.88;97349.66;5070372;28;20047;-47
2023/02/26 06:40:46;;;;;;;5.47;2.67;;;-1.30;72.00;;;2.08;46.32;97350.63;5070214;28;20100;-46
2023/02/26 06:43:14;;;;;;;7.07;2.73;;;-1.30;72.30;;;2.07;46.19;97356.81;5070361;28;20045;-44
2023/02/26 06:45:42;;;;;;;4.87;2.50;;;-1.30;72.20;;;2.06;46.13;97366.47;5069700;28;20055;-48
2023/02/26 06:48:09;;;;;;;5.17;2.20;;;-1.30;72.30;;;2.03;46.23;97364.06;5070339;28;20052;-49
2023/02/26 06:50:37;;;;;;;7.03;2.73;;;-1.40;72.30;;;2.09;46.32;97365.41;5070449;28;20424;-44
2023/02/26 06:53:05;;;;;;;4.27;2.07;;;-1.30;72.90;;;2.14;46.48;97372.00;5070298;28;20385;-50
2023/02/26 06:55:32;;;;;;;3.37;2.00;;;-1.20;72.50;;;2.23;46.49;97377.50;5070868;28;20051;-46
2023/02/26 06:58:00;;;;;;;4.60;2.13;;;-1.10;72.50;;;2.27;46.20;97386.81;5073649;28;20044;-48
2023/02/26 07:00:27;;;;;;;3.83;1.93;;;-1.10;72.50;;;2.34;46.55;97388.03;5073755;28;20416;-48
2023/02/26 07:02:55;;;;;;;4.40;2.23;;;-1.00;72.70;;;2.32;46.42;97392.56;5073674;28;20055;-51
2023/02/26 07:05:23;;;;;;;5.67;2.33;;;-1.00;72.30;;;2.37;46.51;97398.31;5055459;28;20055;-45
2023/02/26 07:07:50;;;;;;;3.63;2.37;;;-1.10;72.50;;;2.40;46.30;97402.50;5073238;28;20380;-47
2023/02/26 07:10:20;;;;;;;9.43;3.70;;;-1.00;72.20;;;2.41;46.59;97398.94;5073182;28;20416;-47
2023/02/26 07:12:47;;;;;;;6.20;2.63;;;-1.00;72.50;;;2.45;46.58;97400.38;5073426;28;20511;-48
2023/02/26 07:15:15;;;;;;;12.07;6.50;;;-0.90;72.50;;;2.51;46.40;97407.78;5073156;28;20051;-46
2023/02/26 07:17:43;;;;;;;14.80;6.80;;;-0.80;72.20;;;2.56;46.56;97409.13;5073271;28;20048;-46
2023/02/26 07:20:12;;;;;;;3.50;2.57;;;-0.80;71.70;;;2.56;46.28;97414.38;5073431;28;20067;-48
2023/02/26 07:22:40;;;;;;;5.00;3.27;;;-0.80;71.60;;;2.58;45.86;97413.41;5073183;28;20045;-48
2023/02/26 07:25:08;;;;;;;4.43;2.60;;;-0.80;71.60;;;2.62;46.48;97406.94;5070030;28;20071;-45
2023/02/26 07:27:36;;;;;;;4.43;2.67;;;-0.70;71.90;;;2.65;46.42;97414.63;5072298;28;20404;-46
2023/02/26 07:30:06;;;;;;;3.63;2.20;;;-0.60;71.50;;;2.69;46.14;97410.78;5071947;28;20040;-45
2023/02/26 07:32:33;;;;;;;5.07;2.60;;;-0.60;71.30;;;2.64;46.57;97421.66;5054527;28;20078;-47
2023/02/26 07:35:01;;;;;;;6.43;3.20;;;-0.70;71.60;;;2.68;46.62;97417.84;5053817;28;20037;-46
2023/02/26 07:37:29;;;;;;;5.03;2.57;;;-0.70;72.10;;;2.72;46.50;97419.28;5071059;28;20041;-45
2023/02/26 07:39:57;;;;;;;4.20;2.80;;;-0.60;71.80;;;2.78;46.63;97415.34;5070819;28;20037;-46
2023/02/26 07:42:24;;;;;;;4.93;2.40;;;-0.50;71.60;;;2.86;46.18;97417.38;5071871;28;20067;-46
2023/02/26 07:44:52;;;;;;;5.93;3.20;;;-0.50;71.20;;;2.86;46.38;97422.66;5069817;28;20060;-45
2023/02/26 07:47:20;;;;;;;5.53;2.13;;;-0.50;71.20;;;2.87;45.83;97424.31;5071625;28;20428;-48
2023/02/26 07:49:48;;;;;;;4.00;2.23;;;-0.50;71.50;;;2.90;46.27;97422.28;5071675;28;20049;-46
2023/02/26 07:52:15;;;;;;;7.07;2.83;;;-0.50;71.70;;;2.88;46.25;97426.00;5071666;28;20056;-49
2023/02/26 07:54:43;;;;;;;3.30;1.90;;;-0.50;71.60;;;2.90;46.62;97424.09;5071367;28;20056;-48
2023/02/26 07:57:10;;;;;;;4.73;2.30;;;-0.50;73.00;;;2.83;46.30;97430.75;5071577;28;20041;-44
2023/02/26 07:59:38;;;;;;;4.27;2.90;;;-0.60;71.80;;;2.81;46.59;97430.91;5071786;28;20071;-49
2023/02/26 08:02:06;;;;;;;3.53;2.27;;;-0.60;72.70;;;2.78;46.68;97432.91;5053595;28;20515;-46
2023/02/26 08:04:33;;;;;;;5.60;2.87;;;-0.60;72.30;;;2.81;46.75;97440.56;5070689;28;20072;-46
2023/02/26 08:07:01;;;;;;;5.80;3.03;;;-0.60;72.00;;;2.88;46.26;97432.06;5053562;28;20059;-47
2023/02/26 08:09:29;;;;;;;4.23;2.80;;;-0.60;72.60;;;2.99;46.31;97440.97;5071672;28;20389;-45
2023/02/26 08:11:57;;;;;;;10.03;3.83;;;-0.50;72.20;;;3.05;46.27;97436.03;5071193;28;20052;-47
2023/02/26 08:14:24;;;;;;;8.60;4.10;;;-0.40;72.00;;;3.14;46.21;97442.38;5070994;28;20044;-50
2023/02/26 08:16:52;;;;;;;11.40;4.70;;;-0.20;71.10;;;3.06;46.35;97442.97;5052464;28;20608;-45
2023/02/26 08:19:20;;;;;;;4.90;2.90;;;-0.20;70.10;;;2.98;46.22;97447.16;5070756;28;20037;-45
2023/02/26 08:21:47;;;;;;;8.53;3.60;;;-0.30;70.30;;;3.04;46.40;97444.03;5071208;28;20496;-46
2023/02/26 08:24:17;;;;;;;8.97;3.33;;;-0.20;70.60;;;3.11;46.58;97450.50;5070904;28;20050;-47
2023/02/26 08:26:45;;;;;;;6.17;4.27;;;-0.10;70.80;;;3.19;46.16;97449.91;5070859;28;20515;-48
2023/02/26 08:29:13;;;;;;;3.30;1.93;;;-0.10;70.80;;;3.26;45.87;97444.06;5070845;28;20507;-47
2023/02/26 08:31:40;;;;;;;6.87;2.50;;;0.00;69.80;;;3.17;46.13;97444.78;5052928;28;20052;-45
2023/02/26 08:34:08;;;;;;;5.37;2.60;;;-0.10;70.20;;;3.16;46.28;97451.00;5070378;28;20040;-49
2023/02/26 08:36:36;;;;;;;6.33;2.87;;;-0.10;69.90;;;3.22;45.80;97454.91;5052304;28;20350;-47
2023/02/26 08:39:04;;;;;;;10.33;2.93;;;0.00;70.30;;;3.35;46.46;97458.28;5070781;28;20045;-47
2023/02/26 08:41:32;;;;;;;4.63;2.80;;;0.10;70.40;;;3.43;46.35;97462.94;5035730;28;20044;-45
2023/02/26 08:44:00;;;;;;;3.20;2.50;;;0.20;69.90;;;3.53;46.12;97467.34;5069373;28;20049;-45
2023/02/26 08:46:27;;;;;;;2.90;1.43;;;0.40;69.60;;;3.66;45.92;97467.19;5069447;28;20041;-46
2023/02/26 08:48:56;;;;;;;2.80;2.50;;;0.40;69.40;;;3.81;46.21;97467.78;5067522;28;20495;-48
2023/02/26 08:51:23;;;;;;;3.97;2.07;;;0.50;70.00;;;3.85;46.09;97468.38;5052544;28;20048;-50
2023/02/26 08:53:52;;;;;;;5.07;2.83;;;0.50;69.30;;;3.83;45.64;97475.56;5052768;28;20048;-47
2023/02/26 08:56:19;;;;;;;3.97;2.57;;;0.50;68.80;;;3.83;46.10;97475.56;5069994;28;20040;-47
2023/02/26 08:58:47;;;;;;;6.10;2.70;;;0.60;69.70;;;3.89;46.29;97485.59;5071383;28;20039;-48
2023/02/26 09:01:14;;;;;;;6.33;2.43;;;0.70;69.90;;;3.92;45.71;97480.94;5071477;28;20037;-51
2023/02/26 09:03:42;;;;;;;1.87;1.73;;;0.70;69.00;;;3.85;45.97;97479.75;5071804;28;20043;-45
2023/02/26 09:06:10;;;;;;;4.67;2.13;;;0.70;70.20;;;3.89;46.26;97483.81;5062609;28;20048;-49
2023/02/26 09:08:38;;;;;;;7.23;2.53;;;0.80;70.10;;;3.96;46.27;97484.16;5071196;28;20048;-45
2023/02/26 09:11:05;;;;;;;6.37;2.53;;;0.90;70.50;;;4.04;46.25;97480.91;5071350;28;20427;-45
2023/02/26 09:13:33;;;;;;;5.90;2.37;;;1.00;70.50;;;4.00;46.41;97490.03;5071415;28;20051;-45
2023/02/26 09:16:00;;;;;;;6.57;2.60;;;0.80;70.50;;;4.01;46.27;97499.59;5070676;28;20041;-49
2023/02/26 09:18:28;;;;;;;4.83;2.60;;;0.80;71.10;;;4.04;46.54;97497.53;5052338;28;20047;-45
2023/02/26 09:20:56;;;;;;;3.27;2.07;;;0.80;71.90;;;4.08;46.95;97498.97;5071100;28;20040;-49
2023/02/26 09:23:24;;;;;;;3.90;2.73;;;0.90;70.80;;;4.01;46.56;97510.13;5071101;28;20547;-47
2023/02/26 09:25:53;;;;;;;4.37;2.70;;;0.70;70.90;;;3.98;46.64;97507.75;5070620;28;20048;-48
2023/02/26 09:28:23;;;;;;;3.87;2.43;;;0.70;71.50;;;3.87;46.42;97505.97;5068890;28;20420;-44
2023/02/26 09:30:53;;;;;;;4.03;2.00;;;0.50;71.40;;;3.88;46.49;97512.91;5053385;28;20048;-45
2023/02/26 09:33:22;;;;;;;5.90;2.63;;;0.60;71.80;;;3.91;46.61;97512.66;5071221;28;20067;-47
2023/02/26 09:35:51;;;;;;;5.80;2.53;;;0.60;71.90;;;3.94;46.72;97504.53;5052518;28;20049;-45
2023/02/26 09:38:19;;;;;;;5.07;2.20;;;0.60;71.40;;;3.86;46.66;97520.94;5053357;28;20048;-45
2023/02/26 09:40:54;;;;;;;5.97;2.43;;;0.50;71.60;;;3.83;46.60;97522.97;5070630;28;20036;-46
2023/02/26 09:44:14;;;;;;;6.43;2.60;;;0.50;72.40;;;3.87;47.22;97524.41;5070777;28;20044;-48
2023/02/26 09:46:53;;;;;;;4.83;1.90;;;0.50;73.10;;;3.97;46.58;97522.69;5059496;28;20071;-50
2023/02/26 09:49:51;;;;;;;5.63;2.30;;;0.60;71.80;;;4.05;46.40;97530.84;5031022;28;20041;-48
2023/02/26 09:52:26;;;;;;;4.47;2.33;;;0.70;71.80;;;3.98;46.25;97526.19;5048193;28;20040;-46
2023/02/26 09:55:34;;;;;;;5.17;2.17;;;0.70;71.10;;;3.93;46.91;97534.44;5052623;28;20048;-47
2023/02/26 09:58:04;;;;;;;3.60;2.27;;;0.80;70.90;;;4.02;46.85;97533.72;5054591;28;20032;-47
2023/02/26 10:01:12;;;;;;;3.20;1.90;;;0.80;71.10;;;3.98;46.69;97520.91;5070641;28;20055;-49
2023/02/26 10:04:16;;;;;;;4.27;2.17;;;0.70;71.40;;;4.03;46.84;97532.75;5070864;28;20521;-47
2023/02/26 10:07:11;;;;;;;3.43;2.07;;;0.80;71.70;;;3.96;46.88;97536.00;5067107;28;20045;-48
2023/02/26 10:10:14;;;;;;;7.03;3.63;;;0.70;71.90;;;3.99;46.95;97547.13;5065732;28;20041;-49
2023/02/26 10:12:43;;;;;;;4.30;2.40;;;0.70;72.60;;;4.12;46.70;97532.00;5070620;28;20420;-45
2023/02/26 10:15:39;;;;;;;4.23;2.40;;;0.90;72.10;;;4.12;46.43;97534.63;5069521;28;20064;-49
2023/02/26 10:18:17;;;;;;;2.97;1.80;;;1.00;71.00;;;4.17;46.16;97539.56;5054692;28;20045;-45
2023/02/26 10:21:07;;;;;;;2.80;2.23;;;1.00;70.60;;;4.29;46.65;97535.91;5053511;28;20041;-47
2023/02/26 10:23:51;;;;;;;3.43;2.33;;;1.20;70.40;;;4.36;46.15;97538.88;5065286;28;20044;-45
2023/02/26 10:26:25;;;;;;;8.67;3.93;;;1.30;68.60;;;4.47;45.92;97536.22;5045410;28;20504;-46
2023/02/26 10:29:42;;;;;;;4.68;2.47;;;1.50;68.60;;;4.50;45.79;97549.16;5053598;28;20048;-47
2023/02/26 10:33:01;;;;;;;7.93;3.63;;;1.50;66.90;;;4.52;45.76;97549.88;5074325;28;20044;-48
2023/02/26 10:35:34;;;;;;;8.03;2.90;;;1.60;67.50;;;4.66;46.25;97548.72;5052675;28;20047;-47
2023/02/26 10:38:12;;;;;;;7.23;2.50;;;1.60;67.90;;;4.76;45.85;97556.72;5056943;28;20032;-46
2023/02/26 10:41:03;;;;;;;4.20;2.50;;;1.70;67.70;;;4.89;45.68;97551.28;5056901;28;20056;-46
2023/02/26 10:43:41;;;;;;;3.20;1.97;;;1.80;66.70;;;4.97;45.40;97548.81;5067437;28;20040;-51
2023/02/26 10:46:31;;;;;;;5.43;2.73;;;1.90;65.70;;;5.04;45.62;97546.50;5072885;28;20067;-46
2023/02/26 10:49:35;;;;;;;4.17;2.33;;;2.00;66.30;;;5.10;45.58;97551.28;5056399;28;20045;-51
2023/02/26 10:52:19;;;;;;;4.83;2.30;;;2.00;66.40;;;5.07;44.88;97556.81;5042644;28;20512;-48
2023/02/26 10:55:05;;;;;;;5.30;2.53;;;2.00;65.30;;;5.04;45.51;97562.31;5073016;28;20040;-49
2023/02/26 10:57:47;;;;;;;5.97;3.13;;;1.90;65.60;;;5.04;45.07;97559.69;5067376;28;20048;-47
2023/02/26 11:00:20;;;;;;;5.40;2.43;;;1.90;65.60;;;5.06;45.15;97553.34;5055215;28;20037;-45